sensor_id;sensor_type;location;lat;lon;timestamp;P1;durP1;ratioP1;P2;durP2;ratioP2
14007;SDS011;61651;45.508;12.232;2023-03-05T00:02:12;45.83;;;34.67;;
14007;SDS011;61651;45.508;12.232;2023-03-05T00:05:16;45.30;;;33.47;;
14007;SDS011;61651;45.508;12.232;2023-03-05T00:08:18;47.87;;;34.57;;
14007;SDS011;61651;45.508;12.232;2023-03-05T00:11:20;47.50;;;34.53;;
14007;SDS011;61651;45.508;12.232;2023-03-05T00:14:22;51.27;;;37.07;;
14007;SDS011;61651;45.508;12.232;2023-03-05T00:17:24;48.10;;;34.57;;
14007;SDS011;61651;45.508;12.232;2023-03-05T00:20:27;49.67;;;33.43;;
14007;SDS011;61651;45.508;12.232;2023-03-05T00:23:29;47.40;;;34.13;;
14007;SDS011;61651;45.508;12.232;2023-03-05T00:26:33;45.20;;;33.57;;
14007;SDS011;61651;45.508;12.232;2023-03-05T00:29:38;41.87;;;33.23;;
14007;SDS011;61651;45.508;12.232;2023-03-05T00:32:39;45.90;;;32.47;;
14007;SDS011;61651;45.508;12.232;2023-03-05T00:35:43;49.10;;;34.37;;
14007;SDS011;61651;45.508;12.232;2023-03-05T00:38:46;46.27;;;33.30;;
14007;SDS011;61651;45.508;12.232;2023-03-05T00:41:48;48.10;;;34.47;;
14007;SDS011;61651;45.508;12.232;2023-03-05T00:44:50;42.97;;;32.33;;
14007;SDS011;61651;45.508;12.232;2023-03-05T00:47:52;43.57;;;32.73;;
14007;SDS011;61651;45.508;12.232;2023-03-05T00:50:56;49.57;;;33.97;;
14007;SDS011;61651;45.508;12.232;2023-03-05T00:53:58;42.83;;;34.77;;
14007;SDS011;61651;45.508;12.232;2023-03-05T00:57:00;44.37;;;31.80;;
14007;SDS011;61651;45.508;12.232;2023-03-05T01:00:02;41.83;;;32.97;;
14007;SDS011;61651;45.508;12.232;2023-03-05T01:03:04;41.83;;;31.40;;
14007;SDS011;61651;45.508;12.232;2023-03-05T01:06:09;44.73;;;33.83;;
14007;SDS011;61651;45.508;12.232;2023-03-05T01:09:12;47.17;;;32.57;;
14007;SDS011;61651;45.508;12.232;2023-03-05T01:12:14;50.03;;;33.43;;
14007;SDS011;61651;45.508;12.232;2023-03-05T01:15:16;46.00;;;32.53;;
14007;SDS011;61651;45.508;12.232;2023-03-05T01:18:18;46.20;;;32.27;;
14007;SDS011;61651;45.508;12.232;2023-03-05T01:21:24;44.97;;;33.63;;
14007;SDS011;61651;45.508;12.232;2023-03-05T01:24:26;46.43;;;33.50;;
14007;SDS011;61651;45.508;12.232;2023-03-05T01:27:28;44.23;;;31.63;;
14007;SDS011;61651;45.508;12.232;2023-03-05T01:30:30;46.97;;;31.43;;
14007;SDS011;61651;45.508;12.232;2023-03-05T01:33:33;42.63;;;33.17;;
14007;SDS011;61651;45.508;12.232;2023-03-05T01:36:36;49.53;;;33.50;;
14007;SDS011;61651;45.508;12.232;2023-03-05T01:39:38;47.50;;;33.43;;
14007;SDS011;61651;45.508;12.232;2023-03-05T01:42:43;49.67;;;33.97;;
14007;SDS011;61651;45.508;12.232;2023-03-05T01:49:34;47.53;;;35.07;;
14007;SDS011;61651;45.508;12.232;2023-03-05T01:52:40;47.37;;;34.20;;
14007;SDS011;61651;45.508;12.232;2023-03-05T01:55:45;49.53;;;34.77;;
14007;SDS011;61651;45.508;12.232;2023-03-05T01:58:47;47.07;;;33.60;;
14007;SDS011;61651;45.508;12.232;2023-03-05T02:01:50;48.97;;;35.33;;
14007;SDS011;61651;45.508;12.232;2023-03-05T02:04:56;46.57;;;34.23;;
14007;SDS011;61651;45.508;12.232;2023-03-05T02:08:03;46.67;;;35.20;;
14007;SDS011;61651;45.508;12.232;2023-03-05T02:11:06;45.23;;;34.47;;
14007;SDS011;61651;45.508;12.232;2023-03-05T02:14:09;49.17;;;34.83;;
14007;SDS011;61651;45.508;12.232;2023-03-05T02:17:11;46.20;;;35.20;;
14007;SDS011;61651;45.508;12.232;2023-03-05T02:20:15;49.87;;;35.50;;
14007;SDS011;61651;45.508;12.232;2023-03-05T02:23:20;46.10;;;33.67;;
14007;SDS011;61651;45.508;12.232;2023-03-05T02:26:23;51.30;;;37.30;;
14007;SDS011;61651;45.508;12.232;2023-03-05T02:29:25;49.13;;;35.97;;
14007;SDS011;61651;45.508;12.232;2023-03-05T02:32:29;45.50;;;34.93;;
14007;SDS011;61651;45.508;12.232;2023-03-05T02:35:31;46.17;;;33.70;;
14007;SDS011;61651;45.508;12.232;2023-03-05T02:38:35;51.13;;;36.67;;
14007;SDS011;61651;45.508;12.232;2023-03-05T02:41:37;52.87;;;35.00;;
14007;SDS011;61651;45.508;12.232;2023-03-05T02:44:39;48.83;;;34.63;;
14007;SDS011;61651;45.508;12.232;2023-03-05T02:47:41;48.30;;;34.67;;
14007;SDS011;61651;45.508;12.232;2023-03-05T02:50:43;49.57;;;35.73;;
14007;SDS011;61651;45.508;12.232;2023-03-05T02:53:47;48.93;;;34.93;;
14007;SDS011;61651;45.508;12.232;2023-03-05T02:56:49;50.87;;;34.53;;
14007;SDS011;61651;45.508;12.232;2023-03-05T02:59:51;46.33;;;34.00;;
14007;SDS011;61651;45.508;12.232;2023-03-05T03:02:53;46.27;;;33.87;;
14007;SDS011;61651;45.508;12.232;2023-03-05T03:05:56;51.70;;;34.87;;
14007;SDS011;61651;45.508;12.232;2023-03-05T03:08:59;45.53;;;33.47;;
14007;SDS011;61651;45.508;12.232;2023-03-05T03:12:01;48.17;;;33.73;;
14007;SDS011;61651;45.508;12.232;2023-03-05T03:15:04;47.37;;;34.20;;
14007;SDS011;61651;45.508;12.232;2023-03-05T03:18:06;48.47;;;35.70;;
14007;SDS011;61651;45.508;12.232;2023-03-05T03:21:14;44.13;;;33.93;;
14007;SDS011;61651;45.508;12.232;2023-03-05T03:24:18;46.80;;;34.50;;
14007;SDS011;61651;45.508;12.232;2023-03-05T03:27:20;50.23;;;34.70;;
14007;SDS011;61651;45.508;12.232;2023-03-05T03:30:22;43.97;;;33.77;;
14007;SDS011;61651;45.508;12.232;2023-03-05T03:33:24;40.77;;;32.73;;
14007;SDS011;61651;45.508;12.232;2023-03-05T03:36:26;44.37;;;34.43;;
14007;SDS011;61651;45.508;12.232;2023-03-05T03:39:30;41.00;;;32.50;;
14007;SDS011;61651;45.508;12.232;2023-03-05T03:42:32;49.53;;;34.77;;
14007;SDS011;61651;45.508;12.232;2023-03-05T03:45:34;46.37;;;33.50;;
14007;SDS011;61651;45.508;12.232;2023-03-05T03:48:40;45.13;;;35.40;;
14007;SDS011;61651;45.508;12.232;2023-03-05T03:51:42;48.53;;;35.03;;
14007;SDS011;61651;45.508;12.232;2023-03-05T03:54:45;47.53;;;33.87;;
14007;SDS011;61651;45.508;12.232;2023-03-05T03:57:47;50.03;;;34.87;;
14007;SDS011;61651;45.508;12.232;2023-03-05T04:00:49;46.57;;;34.00;;
14007;SDS011;61651;45.508;12.232;2023-03-05T04:03:51;46.17;;;33.97;;
14007;SDS011;61651;45.508;12.232;2023-03-05T04:06:53;45.30;;;31.53;;
14007;SDS011;61651;45.508;12.232;2023-03-05T04:09:56;43.87;;;31.73;;
14007;SDS011;61651;45.508;12.232;2023-03-05T04:12:58;41.40;;;31.13;;
14007;SDS011;61651;45.508;12.232;2023-03-05T04:16:00;42.80;;;32.37;;
14007;SDS011;61651;45.508;12.232;2023-03-05T04:19:02;39.33;;;30.13;;
14007;SDS011;61651;45.508;12.232;2023-03-05T04:22:04;38.57;;;29.23;;
14007;SDS011;61651;45.508;12.232;2023-03-05T04:25:08;39.33;;;32.03;;
14007;SDS011;61651;45.508;12.232;2023-03-05T04:28:10;39.03;;;30.07;;
14007;SDS011;61651;45.508;12.232;2023-03-05T04:31:13;43.53;;;29.93;;
14007;SDS011;61651;45.508;12.232;2023-03-05T04:34:15;39.53;;;29.37;;
14007;SDS011;61651;45.508;12.232;2023-03-05T04:37:16;39.27;;;29.53;;
14007;SDS011;61651;45.508;12.232;2023-03-05T04:40:20;39.40;;;29.07;;
14007;SDS011;61651;45.508;12.232;2023-03-05T04:43:22;39.27;;;28.53;;
14007;SDS011;61651;45.508;12.232;2023-03-05T04:46:24;36.90;;;27.43;;
14007;SDS011;61651;45.508;12.232;2023-03-05T04:49:26;37.17;;;28.13;;
14007;SDS011;61651;45.508;12.232;2023-03-05T04:52:29;36.23;;;26.80;;
14007;SDS011;61651;45.508;12.232;2023-03-05T04:55:32;34.43;;;26.87;;
14007;SDS011;61651;45.508;12.232;2023-03-05T04:58:34;35.77;;;28.03;;
14007;SDS011;61651;45.508;12.232;2023-03-05T05:01:36;35.30;;;26.23;;
14007;SDS011;61651;45.508;12.232;2023-03-05T05:04:38;33.33;;;26.23;;
14007;SDS011;61651;45.508;12.232;2023-03-05T05:07:44;31.97;;;24.47;;
14007;SDS011;61651;45.508;12.232;2023-03-05T05:10:55;35.93;;;24.53;;
14007;SDS011;61651;45.508;12.232;2023-03-05T05:13:58;28.23;;;24.53;;
14007;SDS011;61651;45.508;12.232;2023-03-05T05:17:00;31.03;;;24.93;;
14007;SDS011;61651;45.508;12.232;2023-03-05T05:20:04;36.17;;;25.87;;
14007;SDS011;61651;45.508;12.232;2023-03-05T05:23:07;33.50;;;26.43;;
14007;SDS011;61651;45.508;12.232;2023-03-05T05:26:10;34.17;;;24.93;;
14007;SDS011;61651;45.508;12.232;2023-03-05T05:29:13;37.97;;;26.70;;
14007;SDS011;61651;45.508;12.232;2023-03-05T05:32:15;65.23;;;35.27;;
14007;SDS011;61651;45.508;12.232;2023-03-05T05:35:17;44.37;;;30.50;;
14007;SDS011;61651;45.508;12.232;2023-03-05T05:38:19;37.57;;;26.83;;
14007;SDS011;61651;45.508;12.232;2023-03-05T05:41:23;32.00;;;25.33;;
14007;SDS011;61651;45.508;12.232;2023-03-05T05:44:25;34.63;;;24.57;;
14007;SDS011;61651;45.508;12.232;2023-03-05T05:47:27;33.57;;;24.60;;
14007;SDS011;61651;45.508;12.232;2023-03-05T05:50:29;31.20;;;22.50;;
14007;SDS011;61651;45.508;12.232;2023-03-05T05:53:31;34.57;;;23.93;;
14007;SDS011;61651;45.508;12.232;2023-03-05T05:56:35;29.27;;;22.30;;
14007;SDS011;61651;45.508;12.232;2023-03-05T05:59:37;31.40;;;24.23;;
14007;SDS011;61651;45.508;12.232;2023-03-05T06:02:40;32.20;;;23.43;;
14007;SDS011;61651;45.508;12.232;2023-03-05T06:05:42;27.77;;;22.70;;
14007;SDS011;61651;45.508;12.232;2023-03-05T06:08:47;26.20;;;20.93;;
14007;SDS011;61651;45.508;12.232;2023-03-05T06:11:50;27.83;;;23.67;;
14007;SDS011;61651;45.508;12.232;2023-03-05T06:14:52;31.77;;;23.40;;
14007;SDS011;61651;45.508;12.232;2023-03-05T06:17:54;30.63;;;23.23;;
14007;SDS011;61651;45.508;12.232;2023-03-05T06:20:56;26.97;;;21.77;;
14007;SDS011;61651;45.508;12.232;2023-03-05T06:24:00;27.33;;;21.50;;
14007;SDS011;61651;45.508;12.232;2023-03-05T06:27:04;29.23;;;19.90;;
14007;SDS011;61651;45.508;12.232;2023-03-05T06:30:06;25.30;;;19.53;;
14007;SDS011;61651;45.508;12.232;2023-03-05T06:33:10;28.33;;;19.53;;
14007;SDS011;61651;45.508;12.232;2023-03-05T06:36:13;25.50;;;19.93;;
14007;SDS011;61651;45.508;12.232;2023-03-05T06:39:17;24.47;;;17.87;;
14007;SDS011;61651;45.508;12.232;2023-03-05T06:42:20;21.33;;;16.70;;
14007;SDS011;61651;45.508;12.232;2023-03-05T06:45:22;23.43;;;17.50;;
14007;SDS011;61651;45.508;12.232;2023-03-05T06:48:24;25.73;;;17.20;;
14007;SDS011;61651;45.508;12.232;2023-03-05T06:51:27;32.70;;;17.07;;
14007;SDS011;61651;45.508;12.232;2023-03-05T06:54:31;19.93;;;16.50;;
14007;SDS011;61651;45.508;12.232;2023-03-05T06:57:34;20.30;;;15.20;;
14007;SDS011;61651;45.508;12.232;2023-03-05T07:00:37;22.30;;;16.27;;
14007;SDS011;61651;45.508;12.232;2023-03-05T07:03:39;19.50;;;16.20;;
14007;SDS011;61651;45.508;12.232;2023-03-05T07:06:41;21.00;;;14.97;;
14007;SDS011;61651;45.508;12.232;2023-03-05T07:09:43;23.57;;;14.93;;
14007;SDS011;61651;45.508;12.232;2023-03-05T07:12:50;22.03;;;14.37;;
14007;SDS011;61651;45.508;12.232;2023-03-05T07:15:52;19.83;;;14.00;;
14007;SDS011;61651;45.508;12.232;2023-03-05T07:18:55;21.60;;;14.27;;
14007;SDS011;61651;45.508;12.232;2023-03-05T07:21:57;19.10;;;14.33;;
14007;SDS011;61651;45.508;12.232;2023-03-05T07:24:59;17.50;;;13.17;;
14007;SDS011;61651;45.508;12.232;2023-03-05T07:28:03;17.47;;;13.30;;
14007;SDS011;61651;45.508;12.232;2023-03-05T07:31:06;17.87;;;12.60;;
14007;SDS011;61651;45.508;12.232;2023-03-05T07:34:11;17.03;;;13.63;;
14007;SDS011;61651;45.508;12.232;2023-03-05T07:37:13;17.07;;;13.63;;
14007;SDS011;61651;45.508;12.232;2023-03-05T07:40:15;16.27;;;12.53;;
14007;SDS011;61651;45.508;12.232;2023-03-05T07:43:19;18.77;;;12.33;;
14007;SDS011;61651;45.508;12.232;2023-03-05T07:46:22;14.93;;;11.17;;
14007;SDS011;61651;45.508;12.232;2023-03-05T07:49:27;15.47;;;11.80;;
14007;SDS011;61651;45.508;12.232;2023-03-05T07:52:28;17.30;;;12.23;;
14007;SDS011;61651;45.508;12.232;2023-03-05T07:55:30;14.43;;;11.27;;
14007;SDS011;61651;45.508;12.232;2023-03-05T07:58:34;12.83;;;10.00;;
14007;SDS011;61651;45.508;12.232;2023-03-05T08:01:36;14.70;;;10.90;;
14007;SDS011;61651;45.508;12.232;2023-03-05T08:04:38;11.93;;;9.87;;
14007;SDS011;61651;45.508;12.232;2023-03-05T08:07:42;13.67;;;10.07;;
14007;SDS011;61651;45.508;12.232;2023-03-05T08:11:25;12.47;;;9.33;;
14007;SDS011;61651;45.508;12.232;2023-03-05T08:14:30;14.77;;;9.80;;
14007;SDS011;61651;45.508;12.232;2023-03-05T08:17:31;13.00;;;9.37;;
14007;SDS011;61651;45.508;12.232;2023-03-05T08:20:49;16.07;;;9.33;;
14007;SDS011;61651;45.508;12.232;2023-03-05T08:23:51;12.17;;;9.73;;
14007;SDS011;61651;45.508;12.232;2023-03-05T08:26:53;14.10;;;10.03;;
14007;SDS011;61651;45.508;12.232;2023-03-05T08:29:57;15.63;;;10.13;;
14007;SDS011;61651;45.508;12.232;2023-03-05T08:33:01;13.90;;;9.93;;
14007;SDS011;61651;45.508;12.232;2023-03-05T08:36:03;13.37;;;9.30;;
14007;SDS011;61651;45.508;12.232;2023-03-05T08:39:05;13.43;;;10.17;;
14007;SDS011;61651;45.508;12.232;2023-03-05T08:42:09;13.50;;;9.70;;
14007;SDS011;61651;45.508;12.232;2023-03-05T08:45:12;15.10;;;10.30;;
14007;SDS011;61651;45.508;12.232;2023-03-05T08:48:14;13.73;;;10.33;;
14007;SDS011;61651;45.508;12.232;2023-03-05T08:51:17;15.60;;;11.40;;
14007;SDS011;61651;45.508;12.232;2023-03-05T08:54:21;13.90;;;10.27;;
14007;SDS011;61651;45.508;12.232;2023-03-05T08:57:23;16.60;;;10.27;;
14007;SDS011;61651;45.508;12.232;2023-03-05T09:00:34;13.17;;;10.33;;
14007;SDS011;61651;45.508;12.232;2023-03-05T09:03:36;13.47;;;11.23;;
14007;SDS011;61651;45.508;12.232;2023-03-05T09:06:38;16.37;;;11.33;;
14007;SDS011;61651;45.508;12.232;2023-03-05T09:09:40;16.07;;;11.47;;
14007;SDS011;61651;45.508;12.232;2023-03-05T09:12:42;13.77;;;10.63;;
14007;SDS011;61651;45.508;12.232;2023-03-05T09:15:46;13.23;;;11.10;;
14007;SDS011;61651;45.508;12.232;2023-03-05T09:18:54;16.53;;;12.03;;
14007;SDS011;61651;45.508;12.232;2023-03-05T09:21:56;15.17;;;11.20;;
14007;SDS011;61651;45.508;12.232;2023-03-05T09:24:58;19.37;;;9.97;;
14007;SDS011;61651;45.508;12.232;2023-03-05T09:28:00;15.00;;;11.10;;
14007;SDS011;61651;45.508;12.232;2023-03-05T09:31:04;14.13;;;11.27;;
14007;SDS011;61651;45.508;12.232;2023-03-05T09:34:07;15.83;;;11.67;;
14007;SDS011;61651;45.508;12.232;2023-03-05T09:37:10;15.97;;;11.60;;
14007;SDS011;61651;45.508;12.232;2023-03-05T09:40:13;20.53;;;14.40;;
14007;SDS011;61651;45.508;12.232;2023-03-05T09:43:21;17.33;;;12.87;;
14007;SDS011;61651;45.508;12.232;2023-03-05T09:46:34;19.47;;;12.87;;
14007;SDS011;61651;45.508;12.232;2023-03-05T09:49:46;15.73;;;12.50;;
14007;SDS011;61651;45.508;12.232;2023-03-05T09:52:56;20.20;;;15.83;;
14007;SDS011;61651;45.508;12.232;2023-03-05T09:56:03;25.30;;;17.47;;
14007;SDS011;61651;45.508;12.232;2023-03-05T09:59:17;23.63;;;16.70;;
14007;SDS011;61651;45.508;12.232;2023-03-05T10:02:28;21.90;;;16.87;;
14007;SDS011;61651;45.508;12.232;2023-03-05T10:05:43;25.27;;;19.27;;
14007;SDS011;61651;45.508;12.232;2023-03-05T10:08:52;23.57;;;17.30;;
14007;SDS011;61651;45.508;12.232;2023-03-05T10:11:56;24.97;;;17.20;;
14007;SDS011;61651;45.508;12.232;2023-03-05T10:15:01;25.90;;;16.67;;
14007;SDS011;61651;45.508;12.232;2023-03-05T10:18:06;21.87;;;16.87;;
14007;SDS011;61651;45.508;12.232;2023-03-05T10:21:17;24.53;;;17.37;;
14007;SDS011;61651;45.508;12.232;2023-03-05T10:24:25;26.20;;;17.60;;
14007;SDS011;61651;45.508;12.232;2023-03-05T10:27:42;22.03;;;15.90;;
14007;SDS011;61651;45.508;12.232;2023-03-05T10:30:54;18.73;;;14.97;;
14007;SDS011;61651;45.508;12.232;2023-03-05T10:37:42;13.40;;;11.88;;
14007;SDS011;61651;45.508;12.232;2023-03-05T10:40:58;14.32;;;10.70;;
14007;SDS011;61651;45.508;12.232;2023-03-05T10:44:08;16.57;;;11.70;;
14007;SDS011;61651;45.508;12.232;2023-03-05T10:47:19;15.63;;;10.60;;
14007;SDS011;61651;45.508;12.232;2023-03-05T10:50:26;13.83;;;10.83;;
14007;SDS011;61651;45.508;12.232;2023-03-05T10:53:32;14.63;;;11.53;;
14007;SDS011;61651;45.508;12.232;2023-03-05T10:56:38;16.97;;;11.27;;
14007;SDS011;61651;45.508;12.232;2023-03-05T10:59:40;14.37;;;11.37;;
14007;SDS011;61651;45.508;12.232;2023-03-05T11:02:54;14.73;;;11.20;;
14007;SDS011;61651;45.508;12.232;2023-03-05T11:05:59;15.07;;;12.18;;
14007;SDS011;61651;45.508;12.232;2023-03-05T11:09:17;18.50;;;12.30;;
14007;SDS011;61651;45.508;12.232;2023-03-05T11:12:23;21.45;;;14.10;;
14007;SDS011;61651;45.508;12.232;2023-03-05T11:15:28;31.23;;;17.25;;
14007;SDS011;61651;45.508;12.232;2023-03-05T11:18:30;33.30;;;18.60;;
14007;SDS011;61651;45.508;12.232;2023-03-05T11:21:35;82.85;;;32.17;;
14007;SDS011;61651;45.508;12.232;2023-03-05T11:24:37;72.45;;;33.00;;
14007;SDS011;61651;45.508;12.232;2023-03-05T11:27:42;50.17;;;25.67;;
14007;SDS011;61651;45.508;12.232;2023-03-05T11:30:54;40.85;;;23.33;;
14007;SDS011;61651;45.508;12.232;2023-03-05T11:34:00;25.98;;;18.85;;
14007;SDS011;61651;45.508;12.232;2023-03-05T11:37:05;31.80;;;19.30;;
14007;SDS011;61651;45.508;12.232;2023-03-05T11:40:19;23.42;;;17.95;;
14007;SDS011;61651;45.508;12.232;2023-03-05T11:43:24;31.02;;;20.30;;
14007;SDS011;61651;45.508;12.232;2023-03-05T11:46:27;28.80;;;19.90;;
14007;SDS011;61651;45.508;12.232;2023-03-05T11:49:30;25.10;;;19.65;;
14007;SDS011;61651;45.508;12.232;2023-03-05T11:52:37;24.42;;;20.40;;
14007;SDS011;61651;45.508;12.232;2023-03-05T11:55:45;26.30;;;20.88;;
14007;SDS011;61651;45.508;12.232;2023-03-05T11:58:50;26.80;;;19.48;;
14007;SDS011;61651;45.508;12.232;2023-03-05T12:01:57;27.00;;;21.08;;
14007;SDS011;61651;45.508;12.232;2023-03-05T12:05:00;26.35;;;20.00;;
14007;SDS011;61651;45.508;12.232;2023-03-05T12:08:05;24.60;;;20.63;;
14007;SDS011;61651;45.508;12.232;2023-03-05T12:11:14;27.77;;;21.55;;
14007;SDS011;61651;45.508;12.232;2023-03-05T12:14:20;24.15;;;20.10;;
14007;SDS011;61651;45.508;12.232;2023-03-05T12:17:27;29.27;;;19.23;;
14007;SDS011;61651;45.508;12.232;2023-03-05T12:20:36;25.40;;;19.80;;
14007;SDS011;61651;45.508;12.232;2023-03-05T12:23:44;22.77;;;18.50;;
14007;SDS011;61651;45.508;12.232;2023-03-05T12:26:55;23.27;;;17.95;;
14007;SDS011;61651;45.508;12.232;2023-03-05T12:30:08;22.52;;;18.42;;
14007;SDS011;61651;45.508;12.232;2023-03-05T12:33:48;25.60;;;16.67;;
14007;SDS011;61651;45.508;12.232;2023-03-05T12:36:50;20.85;;;16.30;;
14007;SDS011;61651;45.508;12.232;2023-03-05T12:39:57;22.33;;;15.60;;
14007;SDS011;61651;45.508;12.232;2023-03-05T12:43:03;20.65;;;15.52;;
14007;SDS011;61651;45.508;12.232;2023-03-05T12:46:22;20.98;;;15.52;;
14007;SDS011;61651;45.508;12.232;2023-03-05T12:49:27;20.02;;;15.43;;
14007;SDS011;61651;45.508;12.232;2023-03-05T12:52:30;24.23;;;18.00;;
14007;SDS011;61651;45.508;12.232;2023-03-05T12:55:36;23.10;;;16.33;;
14007;SDS011;61651;45.508;12.232;2023-03-05T12:58:46;21.67;;;17.50;;
14007;SDS011;61651;45.508;12.232;2023-03-05T13:01:51;22.05;;;17.10;;
14007;SDS011;61651;45.508;12.232;2023-03-05T13:04:59;22.33;;;19.33;;
14007;SDS011;61651;45.508;12.232;2023-03-05T13:08:08;19.95;;;17.33;;
14007;SDS011;61651;45.508;12.232;2023-03-05T13:11:15;21.52;;;15.73;;
14007;SDS011;61651;45.508;12.232;2023-03-05T13:14:31;24.42;;;16.45;;
14007;SDS011;61651;45.508;12.232;2023-03-05T13:17:40;24.30;;;20.17;;
14007;SDS011;61651;45.508;12.232;2023-03-05T13:20:59;23.70;;;17.80;;
14007;SDS011;61651;45.508;12.232;2023-03-05T13:24:12;24.45;;;17.80;;
14007;SDS011;61651;45.508;12.232;2023-03-05T13:27:23;20.33;;;16.70;;
14007;SDS011;61651;45.508;12.232;2023-03-05T13:30:30;25.30;;;17.88;;
14007;SDS011;61651;45.508;12.232;2023-03-05T13:33:33;20.35;;;17.48;;
14007;SDS011;61651;45.508;12.232;2023-03-05T13:36:36;22.27;;;17.90;;
14007;SDS011;61651;45.508;12.232;2023-03-05T13:39:39;22.10;;;17.70;;
14007;SDS011;61651;45.508;12.232;2023-03-05T13:42:45;19.23;;;16.38;;
14007;SDS011;61651;45.508;12.232;2023-03-05T13:45:51;29.25;;;18.42;;
14007;SDS011;61651;45.508;12.232;2023-03-05T13:48:55;26.00;;;18.52;;
14007;SDS011;61651;45.508;12.232;2023-03-05T13:51:58;20.17;;;17.98;;
14007;SDS011;61651;45.508;12.232;2023-03-05T13:55:00;21.23;;;18.02;;
14007;SDS011;61651;45.508;12.232;2023-03-05T13:58:38;21.15;;;18.27;;
14007;SDS011;61651;45.508;12.232;2023-03-05T14:01:48;26.75;;;20.02;;
14007;SDS011;61651;45.508;12.232;2023-03-05T14:04:51;27.30;;;21.05;;
14007;SDS011;61651;45.508;12.232;2023-03-05T14:07:53;30.25;;;22.45;;
14007;SDS011;61651;45.508;12.232;2023-03-05T14:10:55;26.60;;;20.98;;
14007;SDS011;61651;45.508;12.232;2023-03-05T14:14:05;28.05;;;21.75;;
14007;SDS011;61651;45.508;12.232;2023-03-05T14:17:30;28.90;;;25.23;;
14007;SDS011;61651;45.508;12.232;2023-03-05T14:20:36;34.75;;;23.80;;
14007;SDS011;61651;45.508;12.232;2023-03-05T14:23:39;31.38;;;22.38;;
14007;SDS011;61651;45.508;12.232;2023-03-05T14:26:46;27.25;;;22.10;;
14007;SDS011;61651;45.508;12.232;2023-03-05T14:29:53;31.98;;;24.85;;
14007;SDS011;61651;45.508;12.232;2023-03-05T14:32:55;28.80;;;22.88;;
14007;SDS011;61651;45.508;12.232;2023-03-05T14:35:59;34.08;;;24.10;;
14007;SDS011;61651;45.508;12.232;2023-03-05T14:39:02;35.25;;;23.85;;
14007;SDS011;61651;45.508;12.232;2023-03-05T14:42:24;37.88;;;30.50;;
14007;SDS011;61651;45.508;12.232;2023-03-05T14:45:30;33.60;;;27.20;;
14007;SDS011;61651;45.508;12.232;2023-03-05T14:48:35;35.70;;;26.00;;
14007;SDS011;61651;45.508;12.232;2023-03-05T14:51:38;37.17;;;28.48;;
14007;SDS011;61651;45.508;12.232;2023-03-05T14:54:42;34.78;;;25.80;;
14007;SDS011;61651;45.508;12.232;2023-03-05T14:57:44;31.23;;;25.27;;
14007;SDS011;61651;45.508;12.232;2023-03-05T15:00:49;33.10;;;25.67;;
14007;SDS011;61651;45.508;12.232;2023-03-05T15:03:51;34.75;;;30.67;;
14007;SDS011;61651;45.508;12.232;2023-03-05T15:06:53;35.13;;;27.23;;
14007;SDS011;61651;45.508;12.232;2023-03-05T15:09:55;38.15;;;29.27;;
14007;SDS011;61651;45.508;12.232;2023-03-05T15:12:57;34.50;;;28.35;;
14007;SDS011;61651;45.508;12.232;2023-03-05T15:16:00;36.67;;;29.25;;
14007;SDS011;61651;45.508;12.232;2023-03-05T15:19:02;35.03;;;26.50;;
14007;SDS011;61651;45.508;12.232;2023-03-05T15:22:04;33.67;;;26.92;;
14007;SDS011;61651;45.508;12.232;2023-03-05T15:25:06;34.50;;;26.55;;
14007;SDS011;61651;45.508;12.232;2023-03-05T15:28:09;32.40;;;24.88;;
14007;SDS011;61651;45.508;12.232;2023-03-05T15:31:12;32.53;;;25.80;;
14007;SDS011;61651;45.508;12.232;2023-03-05T15:34:17;33.35;;;25.75;;
14007;SDS011;61651;45.508;12.232;2023-03-05T15:37:19;30.75;;;23.75;;
14007;SDS011;61651;45.508;12.232;2023-03-05T15:40:21;36.80;;;27.15;;
14007;SDS011;61651;45.508;12.232;2023-03-05T15:43:23;33.42;;;25.88;;
14007;SDS011;61651;45.508;12.232;2023-03-05T15:46:27;30.08;;;25.63;;
14007;SDS011;61651;45.508;12.232;2023-03-05T15:49:29;32.10;;;25.65;;
14007;SDS011;61651;45.508;12.232;2023-03-05T15:52:31;32.42;;;26.65;;
14007;SDS011;61651;45.508;12.232;2023-03-05T15:55:35;31.85;;;23.98;;
14007;SDS011;61651;45.508;12.232;2023-03-05T15:58:38;32.25;;;25.75;;
14007;SDS011;61651;45.508;12.232;2023-03-05T16:01:44;33.30;;;25.30;;
14007;SDS011;61651;45.508;12.232;2023-03-05T16:04:50;31.58;;;24.90;;
14007;SDS011;61651;45.508;12.232;2023-03-05T16:07:52;32.97;;;25.15;;
14007;SDS011;61651;45.508;12.232;2023-03-05T16:10:55;33.03;;;24.80;;
14007;SDS011;61651;45.508;12.232;2023-03-05T16:13:57;34.90;;;26.20;;
14007;SDS011;61651;45.508;12.232;2023-03-05T16:17:02;36.15;;;26.30;;
14007;SDS011;61651;45.508;12.232;2023-03-05T16:20:06;36.53;;;28.33;;
14007;SDS011;61651;45.508;12.232;2023-03-05T16:23:09;37.25;;;29.15;;
14007;SDS011;61651;45.508;12.232;2023-03-05T16:26:11;40.05;;;30.48;;
14007;SDS011;61651;45.508;12.232;2023-03-05T16:29:13;43.45;;;31.52;;
14007;SDS011;61651;45.508;12.232;2023-03-05T16:32:16;43.60;;;33.63;;
14007;SDS011;61651;45.508;12.232;2023-03-05T16:35:18;43.53;;;34.78;;
14007;SDS011;61651;45.508;12.232;2023-03-05T16:38:20;48.70;;;37.15;;
14007;SDS011;61651;45.508;12.232;2023-03-05T16:41:22;48.47;;;38.13;;
14007;SDS011;61651;45.508;12.232;2023-03-05T16:44:25;51.42;;;37.53;;
14007;SDS011;61651;45.508;12.232;2023-03-05T16:47:28;50.42;;;37.30;;
14007;SDS011;61651;45.508;12.232;2023-03-05T16:50:31;51.00;;;38.88;;
14007;SDS011;61651;45.508;12.232;2023-03-05T16:53:33;51.65;;;39.22;;
14007;SDS011;61651;45.508;12.232;2023-03-05T16:56:35;51.67;;;38.80;;
14007;SDS011;61651;45.508;12.232;2023-03-05T16:59:37;49.65;;;37.60;;
14007;SDS011;61651;45.508;12.232;2023-03-05T17:02:41;50.20;;;38.55;;
14007;SDS011;61651;45.508;12.232;2023-03-05T17:05:44;47.53;;;35.92;;
14007;SDS011;61651;45.508;12.232;2023-03-05T17:08:47;50.53;;;36.95;;
14007;SDS011;61651;45.508;12.232;2023-03-05T17:11:50;50.30;;;35.23;;
14007;SDS011;61651;45.508;12.232;2023-03-05T17:14:52;45.60;;;35.35;;
14007;SDS011;61651;45.508;12.232;2023-03-05T17:17:56;47.58;;;34.75;;
14007;SDS011;61651;45.508;12.232;2023-03-05T17:20:59;46.38;;;34.10;;
14007;SDS011;61651;45.508;12.232;2023-03-05T17:24:02;43.47;;;32.30;;
14007;SDS011;61651;45.508;12.232;2023-03-05T17:27:04;45.35;;;34.58;;
14007;SDS011;61651;45.508;12.232;2023-03-05T17:30:06;50.00;;;34.30;;
14007;SDS011;61651;45.508;12.232;2023-03-05T17:33:11;43.77;;;33.27;;
14007;SDS011;61651;45.508;12.232;2023-03-05T17:36:13;42.95;;;31.23;;
14007;SDS011;61651;45.508;12.232;2023-03-05T17:39:16;38.80;;;26.73;;
14007;SDS011;61651;45.508;12.232;2023-03-05T17:42:19;38.23;;;27.73;;
14007;SDS011;61651;45.508;12.232;2023-03-05T17:45:21;37.47;;;27.13;;
14007;SDS011;61651;45.508;12.232;2023-03-05T17:48:24;32.73;;;23.53;;
14007;SDS011;61651;45.508;12.232;2023-03-05T17:51:27;36.27;;;24.10;;